createdAt,value
2024-02-23T00:00:06.736Z,97602.28
2024-02-23T00:02:10.769Z,97598.69
2024-02-23T00:04:17.697Z,97597.84
2024-02-23T00:06:21.766Z,97607.50
2024-02-23T00:08:25.814Z,97610.94
2024-02-23T00:10:29.818Z,97601.31
2024-02-23T00:12:33.680Z,97593.31
2024-02-23T00:14:37.950Z,97590.56
2024-02-23T00:16:42.681Z,97590.41
2024-02-23T00:18:46.494Z,97598.00
2024-02-23T00:20:51.730Z,97597.84
2024-02-23T00:22:54.706Z,97597.03
2024-02-23T00:24:58.471Z,97592.59
2024-02-23T00:27:00.933Z,97587.38
2024-02-23T00:29:05.849Z,97599.66
2024-02-23T00:31:09.733Z,97599.66
2024-02-23T00:33:13.949Z,97604.75
2024-02-23T00:35:18.049Z,97605.47
2024-02-23T00:37:23.490Z,97594.97
2024-02-23T00:39:27.294Z,97599.22
2024-02-23T00:41:31.089Z,97614.81
2024-02-23T00:43:41.037Z,97614.69
2024-02-23T00:45:45.190Z,97618.94
2024-02-23T00:47:49.567Z,97625.84
2024-02-23T00:49:53.413Z,97638.81
2024-02-23T00:51:58.459Z,97642.28
2024-02-23T00:54:03.717Z,97642.16
2024-02-23T00:56:07.569Z,97647.25
2024-02-23T00:58:11.307Z,97645.44
2024-02-23T01:00:16.001Z,97641.72
2024-02-23T01:02:19.900Z,97639.53
2024-02-23T01:04:24.776Z,97636.47
2024-02-23T01:06:29.949Z,97621.03
2024-02-23T01:08:34.639Z,97619.66
2024-02-23T01:10:40.136Z,97626.81
2024-02-23T01:12:43.867Z,97624.31
2024-02-23T01:14:49.870Z,97617.56
2024-02-23T01:16:53.910Z,97614.00
2024-02-23T01:18:58.129Z,97616.59
2024-02-23T01:21:02.178Z,97614.94
2024-02-23T01:23:06.102Z,97619.47
2024-02-23T01:25:10.275Z,97616.75
2024-02-23T01:27:14.620Z,97621.84
2024-02-23T01:29:18.563Z,97613.03
2024-02-23T01:31:22.300Z,97614.66
2024-02-23T01:33:26.071Z,97603.38
2024-02-23T01:35:31.824Z,97596.31
2024-02-23T01:37:35.915Z,97596.47
2024-02-23T01:39:39.643Z,97604.47
2024-02-23T01:41:42.385Z,97614.94
2024-02-23T01:43:48.065Z,97593.41
2024-02-23T01:45:51.912Z,97610.94
2024-02-23T01:47:54.905Z,97607.63
2024-02-23T01:50:01.487Z,97609.56
2024-02-23T01:52:06.255Z,97606.13
2024-02-23T01:54:11.373Z,97607.22
2024-02-23T01:56:19.955Z,97607.22
2024-02-23T01:58:24.639Z,97607.47
2024-02-23T02:00:29.862Z,97607.47
2024-02-23T02:02:33.547Z,97597.28
2024-02-23T02:04:37.690Z,97600.84
2024-02-23T02:06:41.740Z,97600.84
2024-02-23T02:08:44.659Z,97600.84
2024-02-23T02:10:48.934Z,97608.03
2024-02-23T02:12:52.779Z,97600.16
2024-02-23T02:14:57.082Z,97600.31
2024-02-23T02:17:02.752Z,97588.03
2024-02-23T02:19:06.500Z,97591.50
2024-02-23T02:21:10.329Z,97592.31
2024-02-23T02:23:14.728Z,97595.59
2024-02-23T02:25:17.621Z,97596.31
2024-02-23T02:27:21.508Z,97602.22
2024-02-23T02:29:25.234Z,97604.84
2024-02-23T02:31:28.918Z,97609.97
2024-02-23T02:33:34.419Z,97601.28
2024-02-23T02:35:37.120Z,97614.22
2024-02-23T02:37:40.936Z,97610.78
2024-02-23T02:39:44.814Z,97607.59
2024-02-23T02:41:50.375Z,97599.06
2024-02-23T02:43:54.606Z,97592.97
2024-02-23T02:45:58.445Z,97597.53
2024-02-23T02:48:02.955Z,97606.34
2024-02-23T02:50:08.978Z,97594.22
2024-02-23T02:52:12.841Z,97603.06
2024-02-23T02:54:16.577Z,97603.88
2024-02-23T02:56:20.655Z,97606.50
2024-02-23T02:58:24.586Z,97609.94
2024-02-23T03:00:28.579Z,97609.94
2024-02-23T03:02:32.401Z,97608.97
2024-02-23T03:04:36.203Z,97621.25
2024-02-23T03:06:41.697Z,97619.31
2024-02-23T03:08:45.611Z,97628.00
2024-02-23T03:10:50.189Z,97633.25
2024-02-23T03:12:54.096Z,97625.41
2024-02-23T03:14:58.523Z,97631.59
2024-02-23T03:17:02.557Z,97625.53
2024-02-23T03:19:06.811Z,97640.53
2024-02-23T03:21:10.828Z,97637.09
2024-02-23T03:23:16.222Z,97639.97
2024-02-23T03:25:19.830Z,97637.34
2024-02-23T03:27:30.805Z,97638.47
2024-02-23T03:29:34.647Z,97633.34
2024-02-23T03:31:38.399Z,97641.31
2024-02-23T03:33:41.303Z,97638.84
2024-02-23T03:35:45.391Z,97640.50
2024-02-23T03:37:48.072Z,97654.41
2024-02-23T03:39:53.361Z,97648.38
2024-02-23T03:41:56.801Z,97649.19
2024-02-23T03:44:00.733Z,97643.94
2024-02-23T03:46:04.650Z,97648.22
2024-02-23T03:48:08.940Z,97651.66
2024-02-23T03:50:13.251Z,97641.19
2024-02-23T03:52:17.343Z,97642.19
2024-02-23T03:54:21.050Z,97626.59
2024-02-23T03:56:26.523Z,97628.38
2024-02-23T03:58:30.343Z,97625.91
2024-02-23T04:00:34.155Z,97632.09
2024-02-23T04:02:38.770Z,97621.75
2024-02-23T04:04:42.480Z,97618.19
2024-02-23T04:06:46.103Z,97622.56
2024-02-23T04:08:51.239Z,97618.44
2024-02-23T04:10:55.252Z,97619.28
2024-02-23T04:13:00.785Z,97618.44
2024-02-23T04:15:04.878Z,97607.97
2024-02-23T04:17:08.693Z,97610.59
2024-02-23T04:19:13.716Z,97622.03
2024-02-23T04:21:17.082Z,97608.22
2024-02-23T04:23:21.292Z,97608.22
2024-02-23T04:25:25.423Z,97609.06
2024-02-23T04:27:29.220Z,97609.88
2024-02-23T04:29:34.714Z,97608.22
2024-02-23T04:31:39.656Z,97608.22
2024-02-23T04:33:43.753Z,97603.00
2024-02-23T04:35:47.882Z,97590.88
2024-02-23T04:37:51.924Z,97600.50
2024-02-23T04:39:54.609Z,97595.28
2024-02-23T04:41:58.616Z,97595.28
2024-02-23T04:44:03.483Z,97590.19
2024-02-23T04:46:07.656Z,97602.31
2024-02-23T04:48:11.448Z,97597.06
2024-02-23T04:50:15.437Z,97588.38
2024-02-23T04:52:19.208Z,97588.38
2024-02-23T04:54:23.082Z,97592.78
2024-02-23T04:56:26.782Z,97586.75
2024-02-23T04:58:29.477Z,97589.22
2024-02-23T05:00:35.235Z,97593.38
2024-02-23T05:02:40.389Z,97605.22
2024-02-23T05:04:43.987Z,97604.38
2024-02-23T05:06:47.860Z,97607.72
2024-02-23T05:08:51.623Z,97612.09
2024-02-23T05:10:55.240Z,97609.63
2024-02-23T05:12:59.005Z,97612.50
2024-02-23T05:15:01.856Z,97606.59
2024-02-23T05:17:05.993Z,97625.88
2024-02-23T05:19:10.078Z,97625.03
2024-02-23T05:21:13.878Z,97628.63
2024-02-23T05:23:18.204Z,97636.63
2024-02-23T05:25:21.811Z,97640.19
2024-02-23T05:27:25.544Z,97630.81
2024-02-23T05:29:29.464Z,97640.44
2024-02-23T05:31:48.895Z,97633.41
2024-02-23T05:33:52.788Z,97633.69
2024-02-23T05:35:57.875Z,97635.59
2024-02-23T05:38:01.909Z,97637.41
2024-02-23T05:40:11.544Z,97643.59
2024-02-23T05:42:15.711Z,97638.47
2024-02-23T05:44:19.743Z,97652.38
2024-02-23T05:46:23.813Z,97656.00
2024-02-23T05:48:27.560Z,97648.13
2024-02-23T05:50:33.584Z,97653.38
2024-02-23T05:52:38.657Z,97643.84
2024-02-23T05:54:42.509Z,97653.47
2024-02-23T05:56:47.334Z,97651.97
2024-02-23T05:58:51.005Z,97656.34
2024-02-23T06:00:54.989Z,97667.78
2024-02-23T06:02:58.805Z,97659.13
2024-02-23T06:05:02.726Z,97665.16
2024-02-23T06:07:06.602Z,97662.53
2024-02-23T06:09:12.162Z,97660.78
2024-02-23T06:11:15.916Z,97671.25
2024-02-23T06:13:19.695Z,97659.13
2024-02-23T06:15:23.365Z,97665.28
2024-02-23T06:17:26.095Z,97671.38
2024-02-23T06:19:30.121Z,97666.25
2024-02-23T06:21:34.254Z,97667.09
2024-02-23T06:23:37.361Z,97677.44
2024-02-23T06:25:44.556Z,97673.84
2024-02-23T06:27:49.728Z,97679.09
2024-02-23T06:29:53.415Z,97680.88
2024-02-23T06:31:57.202Z,97686.94
2024-02-23T06:34:01.696Z,97678.25
2024-02-23T06:36:06.216Z,97678.25
2024-02-23T06:38:11.206Z,97689.69
2024-02-23T06:40:15.433Z,97681.94
2024-02-23T06:42:19.498Z,97678.50
2024-02-23T06:44:23.634Z,97687.19
2024-02-23T06:46:27.641Z,97681.00
2024-02-23T06:48:30.861Z,97674.94
2024-02-23T06:50:35.176Z,97693.25
2024-02-23T06:52:39.617Z,97699.31
2024-02-23T06:54:43.296Z,97688.84
2024-02-23T06:56:48.119Z,97704.31
2024-02-23T06:58:53.401Z,97703.31
2024-02-23T07:00:56.983Z,97700.72
2024-02-23T07:03:05.324Z,97701.28
2024-02-23T07:05:10.069Z,97703.63
2024-02-23T07:07:14.017Z,97707.66
2024-02-23T07:09:18.007Z,97709.31
2024-02-23T07:11:21.809Z,97707.38
2024-02-23T07:13:26.453Z,97718.56
2024-02-23T07:15:33.975Z,97728.91
2024-02-23T07:17:36.832Z,97727.00
2024-02-23T07:19:41.055Z,97727.00
2024-02-23T07:21:44.405Z,97732.94
2024-02-23T07:23:48.313Z,97734.59
2024-02-23T07:25:53.025Z,97746.84
2024-02-23T07:27:56.764Z,97744.47
2024-02-23T07:29:59.368Z,97742.94
2024-02-23T07:32:04.870Z,97734.41
2024-02-23T07:34:10.242Z,97730.13
2024-02-23T07:36:16.653Z,97737.41
2024-02-23T07:38:19.680Z,97743.63
2024-02-23T07:40:23.572Z,97741.81
2024-02-23T07:42:28.509Z,97751.47
2024-02-23T07:44:32.441Z,97753.94
2024-02-23T07:46:36.348Z,97756.69
2024-02-23T07:48:41.706Z,97759.19
2024-02-23T07:50:45.449Z,97753.00
2024-02-23T07:52:51.692Z,97753.69
2024-02-23T07:54:55.743Z,97754.50
2024-02-23T07:56:59.577Z,97753.56
2024-02-23T07:59:04.838Z,97753.41
2024-02-23T08:01:08.903Z,97753.19
2024-02-23T08:03:12.916Z,97756.47
2024-02-23T08:05:18.516Z,97749.06
2024-02-23T08:07:22.865Z,97758.47
2024-02-23T08:09:26.649Z,97756.41
2024-02-23T08:11:32.523Z,97759.00
2024-02-23T08:13:36.642Z,97760.69
2024-02-23T08:15:40.678Z,97772.56
2024-02-23T08:17:44.716Z,97767.03
2024-02-23T08:19:48.521Z,97773.69
2024-02-23T08:21:54.001Z,97779.50
2024-02-23T08:23:56.881Z,97784.47
2024-02-23T08:26:01.926Z,97782.44
2024-02-23T08:28:06.406Z,97785.03
2024-02-23T08:30:12.249Z,97793.84
2024-02-23T08:32:16.192Z,97795.66
2024-02-23T08:34:20.067Z,97797.44
2024-02-23T08:36:24.100Z,97793.84
2024-02-23T08:38:29.543Z,97804.34
2024-02-23T08:40:32.869Z,97801.03
2024-02-23T08:42:36.568Z,97797.56
2024-02-23T08:44:40.790Z,97797.44
2024-02-23T08:46:44.664Z,97803.50
2024-02-23T08:48:49.353Z,97792.19
2024-02-23T08:50:53.323Z,97799.09
2024-02-23T08:52:57.084Z,97800.75
2024-02-23T08:55:01.749Z,97814.81
2024-02-23T08:57:06.579Z,97805.41
2024-02-23T08:59:10.354Z,97807.09
2024-02-23T09:01:13.304Z,97807.81
2024-02-23T09:03:17.141Z,97809.56
2024-02-23T09:05:22.197Z,97810.53
2024-02-23T09:07:25.388Z,97811.50
2024-02-23T09:09:30.189Z,97810.53
2024-02-23T09:11:35.623Z,97822.41
2024-02-23T09:13:39.805Z,97824.06
2024-02-23T09:15:43.807Z,97828.34
2024-02-23T09:17:47.618Z,97837.88
2024-02-23T09:19:51.502Z,97828.94
2024-02-23T09:21:55.935Z,97822.84
2024-02-23T09:24:00.335Z,97823.69
2024-02-23T09:26:04.551Z,97824.66
2024-02-23T09:28:12.786Z,97824.50
2024-02-23T09:30:17.553Z,97813.31
2024-02-23T09:32:22.007Z,97816.78
2024-02-23T09:34:26.505Z,97815.94
2024-02-23T09:36:31.765Z,97808.78
2024-02-23T09:38:36.147Z,97809.63
2024-02-23T09:40:41.780Z,97814.03
2024-02-23T09:42:49.601Z,97810.00
2024-02-23T09:45:01.398Z,97810.84
2024-02-23T09:47:09.842Z,97811.69
2024-02-23T09:49:14.672Z,97812.38
2024-02-23T09:51:19.337Z,97811.28
2024-02-23T09:53:24.295Z,97809.63
2024-02-23T09:55:29.077Z,97812.13
2024-02-23T09:57:33.011Z,97814.63
2024-02-23T09:59:39.678Z,97820.66
2024-02-23T10:01:46.590Z,97822.34
2024-02-23T10:03:51.556Z,97823.88
2024-02-23T10:05:55.584Z,97834.34
2024-02-23T10:07:59.963Z,97833.38
2024-02-23T10:10:05.266Z,97828.97
2024-02-23T10:12:10.596Z,97829.78
2024-02-23T10:14:14.644Z,97835.88
2024-02-23T10:16:18.547Z,97843.59
2024-02-23T10:18:25.018Z,97846.91
2024-02-23T10:20:29.092Z,97845.00
2024-02-23T10:22:34.872Z,97847.50
2024-02-23T10:24:39.599Z,97841.97
2024-02-23T10:26:42.699Z,97854.13
2024-02-23T10:28:47.769Z,97843.66
2024-02-23T10:30:51.292Z,97852.19
2024-02-23T10:32:59.161Z,97853.03
2024-02-23T10:35:05.638Z,97858.81
2024-02-23T10:37:09.759Z,97861.22
2024-02-23T10:39:18.280Z,97866.19
2024-02-23T10:41:23.560Z,97859.97
2024-02-23T10:43:32.460Z,97870.34
2024-02-23T10:45:37.705Z,97866.63
2024-02-23T10:47:40.322Z,97868.53
2024-02-23T10:49:46.917Z,97870.78
2024-02-23T10:51:53.856Z,97874.06
2024-02-23T10:53:58.923Z,97870.22
2024-02-23T10:56:01.619Z,97879.34
2024-02-23T10:58:08.723Z,97869.44
2024-02-23T11:00:13.989Z,97876.22
2024-02-23T11:02:19.319Z,97877.59
2024-02-23T11:04:24.703Z,97873.03
2024-02-23T11:06:30.494Z,97877.19
2024-02-23T11:08:38.703Z,97876.09
2024-02-23T11:10:45.970Z,97876.66
2024-02-23T11:13:00.870Z,97870.06
2024-02-23T11:15:05.297Z,97872.41
2024-02-23T11:17:09.314Z,97872.13
2024-02-23T11:19:13.434Z,97870.88
2024-02-23T11:21:17.947Z,97873.94
2024-02-23T11:23:22.129Z,97881.44
2024-02-23T11:25:35.438Z,97874.25
2024-02-23T11:27:41.831Z,97878.38
2024-02-23T11:29:49.337Z,97874.53
2024-02-23T11:31:57.432Z,97866.22
2024-02-23T11:34:01.269Z,97873.72
2024-02-23T11:36:09.173Z,97886.56
2024-02-23T11:38:13.411Z,97886.13
2024-02-23T11:40:17.685Z,97889.31
2024-02-23T11:42:23.407Z,97894.03
2024-02-23T11:44:27.258Z,97887.53
2024-02-23T11:46:31.162Z,97892.50
2024-02-23T11:48:34.967Z,97888.78
2024-02-23T11:50:39.047Z,97890.84
2024-02-23T11:52:43.819Z,97888.50
2024-02-23T11:54:47.731Z,97888.63
2024-02-23T11:56:53.885Z,97891.38
2024-02-23T11:58:59.143Z,97898.00
2024-02-23T12:01:03.895Z,97904.94
2024-02-23T12:03:09.000Z,97889.16
2024-02-23T12:05:12.999Z,97888.34
2024-02-23T12:07:18.355Z,97889.16
2024-02-23T12:09:22.360Z,97885.59
2024-02-23T12:11:26.692Z,97881.28
2024-02-23T12:13:30.922Z,97885.44
2024-02-23T12:15:36.335Z,97872.31
2024-02-23T12:17:40.197Z,97876.72
2024-02-23T12:19:44.428Z,97870.06
2024-02-23T12:21:48.547Z,97874.66
2024-02-23T12:23:51.999Z,97880.59
2024-02-23T12:25:57.375Z,97876.19
2024-02-23T12:28:01.539Z,97878.66
2024-02-23T12:30:06.292Z,97884.59
2024-02-23T12:32:13.435Z,97879.22
2024-02-23T12:34:18.798Z,97876.31
2024-02-23T12:36:22.933Z,97872.56
2024-02-23T12:38:27.156Z,97873.25
2024-02-23T12:40:30.986Z,97872.00
2024-02-23T12:42:33.735Z,97883.88
2024-02-23T12:44:37.872Z,97876.41
2024-02-23T12:46:42.344Z,97868.78
2024-02-23T12:48:47.683Z,97872.63
2024-02-23T12:50:52.293Z,97872.88
2024-02-23T12:52:56.140Z,97866.66
2024-02-23T12:55:00.055Z,97869.25
2024-02-23T12:57:03.689Z,97868.22
2024-02-23T12:59:08.565Z,97863.06
2024-02-23T13:01:12.579Z,97854.44
2024-02-23T13:03:16.446Z,97862.72
2024-02-23T13:05:21.685Z,97861.44
2024-02-23T13:07:27.768Z,97860.16
2024-02-23T13:09:32.961Z,97868.31
2024-02-23T13:11:37.369Z,97866.53
2024-02-23T13:13:42.842Z,97856.81
2024-02-23T13:15:48.688Z,97863.88
2024-02-23T13:17:52.615Z,97869.31
2024-02-23T13:20:05.543Z,97867.25
2024-02-23T13:22:16.466Z,97866.19
2024-02-23T13:24:20.856Z,97868.72
2024-02-23T13:26:24.906Z,97866.00
2024-02-23T13:28:28.500Z,97858.53
2024-02-23T13:30:32.562Z,97869.91
2024-02-23T13:32:36.622Z,97866.25
2024-02-23T13:34:40.575Z,97865.00
2024-02-23T13:36:44.593Z,97864.88
2024-02-23T13:38:50.055Z,97865.16
2024-02-23T13:40:53.943Z,97864.88
2024-02-23T13:42:58.998Z,97870.25
2024-02-23T13:45:02.908Z,97863.94
2024-02-23T13:47:07.039Z,97869.09
2024-02-23T13:49:14.407Z,97868.03
2024-02-23T13:51:18.371Z,97869.69
2024-02-23T13:53:22.154Z,97876.47
2024-02-23T13:55:27.480Z,97874.28
2024-02-23T13:57:31.262Z,97865.72
2024-02-23T13:59:35.754Z,97870.59
2024-02-23T14:01:39.528Z,97872.50
2024-02-23T14:03:43.409Z,97874.19
2024-02-23T14:05:48.733Z,97868.91
2024-02-23T14:07:51.760Z,97887.72
2024-02-23T14:09:55.675Z,97884.97
2024-02-23T14:12:00.899Z,97886.19
2024-02-23T14:14:05.328Z,97883.97
2024-02-23T14:16:09.504Z,97880.06
2024-02-23T14:18:13.457Z,97886.72
2024-02-23T14:20:17.722Z,97893.50
2024-02-23T14:22:21.678Z,97888.09
2024-02-23T14:24:25.581Z,97895.84
2024-02-23T14:26:29.704Z,97895.69
2024-02-23T14:28:35.009Z,97905.41
2024-02-23T14:30:38.944Z,97899.28
2024-02-23T14:32:44.009Z,97903.72
2024-02-23T14:34:47.187Z,97911.63
2024-02-23T14:36:51.251Z,97914.09
2024-02-23T14:38:55.267Z,97909.41
2024-02-23T14:40:59.735Z,97917.50
2024-02-23T14:43:03.719Z,97906.28
2024-02-23T14:45:10.819Z,97915.94
2024-02-23T14:47:14.734Z,97913.56
2024-02-23T14:49:18.618Z,97918.22
2024-02-23T14:51:22.382Z,97918.91
2024-02-23T14:53:29.457Z,97916.69
2024-02-23T14:55:33.564Z,97918.84
2024-02-23T14:57:37.397Z,97917.13
2024-02-23T14:59:47.960Z,97920.31
2024-02-23T15:01:53.395Z,97912.81
2024-02-23T15:03:57.951Z,97927.75
2024-02-23T15:06:02.862Z,97933.31
2024-02-23T15:08:07.575Z,97925.88
2024-02-23T15:10:11.756Z,97928.13
2024-02-23T15:12:16.293Z,97926.75
2024-02-23T15:14:20.374Z,97934.81
2024-02-23T15:16:23.272Z,97935.09
2024-02-23T15:18:28.726Z,97938.69
2024-02-23T15:20:33.578Z,97941.34
2024-02-23T15:22:43.526Z,97933.44
2024-02-23T15:24:50.737Z,97938.56
2024-02-23T15:26:55.535Z,97935.91
2024-02-23T15:28:59.313Z,97941.19
2024-02-23T15:31:04.247Z,97944.94
2024-02-23T15:33:08.240Z,97951.47
2024-02-23T15:35:13.735Z,97957.19
2024-02-23T15:37:17.617Z,97950.97
2024-02-23T15:39:20.321Z,97952.38
2024-02-23T15:41:24.086Z,97956.41
2024-02-23T15:43:29.400Z,97957.81
2024-02-23T15:45:33.359Z,97954.78
2024-02-23T15:47:37.103Z,97956.84
2024-02-23T15:50:00.737Z,97957.16
2024-02-23T15:52:06.536Z,97959.38
2024-02-23T15:54:10.580Z,97968.25
2024-02-23T15:56:14.436Z,97972.91
2024-02-23T15:58:21.198Z,97974.88
2024-02-23T16:00:25.234Z,97969.06
2024-02-23T16:02:30.687Z,97970.16
2024-02-23T16:04:34.147Z,97972.66
2024-02-23T16:06:38.210Z,97972.66
2024-02-23T16:08:45.512Z,97970.84
2024-02-23T16:10:49.430Z,97983.03
2024-02-23T16:12:53.496Z,97980.41
2024-02-23T16:14:57.958Z,97985.50
2024-02-23T16:17:02.004Z,97980.13
2024-02-23T16:19:06.090Z,97985.41
2024-02-23T16:21:11.209Z,97986.50
2024-02-23T16:23:14.997Z,97984.00
2024-02-23T16:25:21.107Z,97979.88
2024-02-23T16:27:24.700Z,97987.88
2024-02-23T16:29:28.688Z,97986.22
2024-02-23T16:31:32.608Z,97982.91
2024-02-23T16:33:36.276Z,97982.09
2024-02-23T16:35:40.378Z,97976.13
2024-02-23T16:37:44.308Z,97984.00
2024-02-23T16:39:48.367Z,97979.75
2024-02-23T16:41:53.956Z,97981.53
2024-02-23T16:43:59.059Z,97994.00
2024-02-23T16:46:02.914Z,97991.50
2024-02-23T16:48:09.357Z,97989.13
2024-02-23T16:50:13.537Z,98002.41
2024-02-23T16:52:17.482Z,98002.56
2024-02-23T16:54:22.204Z,98001.03
2024-02-23T16:56:28.753Z,98001.19
2024-02-23T16:58:37.907Z,97999.66
2024-02-23T17:00:41.917Z,98001.72
2024-02-23T17:02:45.866Z,98003.66
2024-02-23T17:04:49.847Z,98011.00
2024-02-23T17:06:54.161Z,98011.13
2024-02-23T17:08:58.039Z,98009.59
2024-02-23T17:11:02.003Z,98019.59
2024-02-23T17:13:06.269Z,98019.72
2024-02-23T17:15:12.536Z,98027.72
2024-02-23T17:17:16.545Z,98035.06
2024-02-23T17:19:20.817Z,98029.94
2024-02-23T17:21:25.526Z,98035.44
2024-02-23T17:23:29.726Z,98035.72
2024-02-23T17:25:34.406Z,98043.75
2024-02-23T17:27:39.350Z,98044.03
2024-02-23T17:29:43.544Z,98048.44
2024-02-23T17:31:48.659Z,98039.88
2024-02-23T17:33:52.211Z,98043.72
2024-02-23T17:35:56.645Z,98056.00
2024-02-23T17:38:00.652Z,98051.19
2024-02-23T17:40:04.497Z,98053.13
2024-02-23T17:42:07.907Z,98058.63
2024-02-23T17:44:12.306Z,98060.56
2024-02-23T17:46:16.256Z,98061.78
2024-02-23T17:48:21.757Z,98065.50
2024-02-23T17:50:26.260Z,98064.94
2024-02-23T17:52:30.206Z,98075.00
2024-02-23T17:54:33.146Z,98071.81
2024-02-23T17:56:37.442Z,98071.25
2024-02-23T17:58:41.437Z,98069.84
2024-02-23T18:00:45.913Z,98071.09
2024-02-23T18:02:50.885Z,98075.66
2024-02-23T18:04:56.269Z,98082.94
2024-02-23T18:07:01.239Z,98074.47
2024-02-23T18:09:06.500Z,98079.03
2024-02-23T18:11:10.689Z,98080.13
2024-02-23T18:13:14.529Z,98075.28
2024-02-23T18:15:17.563Z,98086.75
2024-02-23T18:17:22.272Z,98086.28
2024-02-23T18:19:25.270Z,98087.38
2024-02-23T18:21:32.755Z,98087.66
2024-02-23T18:23:36.615Z,98083.47
2024-02-23T18:25:40.698Z,98092.56
2024-02-23T18:27:44.482Z,98097.22
2024-02-23T18:29:48.498Z,98097.63
2024-02-23T18:31:52.574Z,98103.13
2024-02-23T18:33:55.689Z,98104.34
2024-02-23T18:35:59.469Z,98107.22
2024-02-23T18:38:04.778Z,98101.41
2024-02-23T18:40:10.832Z,98112.03
2024-02-23T18:42:14.675Z,98116.53
2024-02-23T18:44:18.471Z,98117.75
2024-02-23T18:46:22.574Z,98119.69
2024-02-23T18:48:26.674Z,98118.97
2024-02-23T18:50:30.758Z,98115.66
2024-02-23T18:52:33.589Z,98124.47
2024-02-23T18:54:38.736Z,98131.50
2024-02-23T18:56:42.520Z,98126.38
2024-02-23T18:58:46.560Z,98127.34
2024-02-23T19:00:50.316Z,98125.81
2024-02-23T19:02:54.193Z,98126.75
2024-02-23T19:04:58.042Z,98126.88
2024-02-23T19:07:01.900Z,98127.84
2024-02-23T19:09:06.350Z,98132.38
2024-02-23T19:11:12.534Z,98117.59
2024-02-23T19:13:16.323Z,98140.47
2024-02-23T19:15:20.232Z,98146.56
2024-02-23T19:17:24.575Z,98139.66
2024-02-23T19:19:28.453Z,98140.47
2024-02-23T19:21:32.865Z,98156.31
2024-02-23T19:23:37.011Z,98156.44
2024-02-23T19:25:40.909Z,98155.75
2024-02-23T19:27:46.316Z,98158.38
2024-02-23T19:29:49.111Z,98174.09
2024-02-23T19:31:53.180Z,98172.44
2024-02-23T19:33:57.134Z,98172.44
2024-02-23T19:36:01.293Z,98178.63
2024-02-23T19:38:05.873Z,98178.75
2024-02-23T19:40:12.316Z,98176.00
2024-02-23T19:42:17.671Z,98188.16
2024-02-23T19:44:23.380Z,98192.53
2024-02-23T19:46:27.407Z,98182.91
2024-02-23T19:48:31.474Z,98190.78
2024-02-23T19:50:35.355Z,98180.41
2024-02-23T19:52:39.685Z,98184.00
2024-02-23T19:54:43.665Z,98183.16
2024-02-23T19:56:46.441Z,98186.59
2024-02-23T19:58:50.487Z,98181.50
2024-02-23T20:00:55.809Z,98185.78
2024-02-23T20:02:59.797Z,98186.59
2024-02-23T20:05:04.818Z,98183.16
2024-02-23T20:07:10.897Z,98182.31
2024-02-23T20:09:15.166Z,98176.25
2024-02-23T20:11:19.116Z,98178.16
2024-02-23T20:13:23.448Z,98181.75
2024-02-23T20:15:27.646Z,98178.28
2024-02-23T20:17:33.677Z,98186.13
2024-02-23T20:19:38.573Z,98179.22
2024-02-23T20:21:43.082Z,98182.81
2024-02-23T20:23:47.343Z,98182.69
2024-02-23T20:25:51.168Z,98190.69
2024-02-23T20:27:55.060Z,98195.06
2024-02-23T20:29:59.215Z,98194.13
2024-02-23T20:32:10.623Z,98192.44
2024-02-23T20:34:21.388Z,98196.06
2024-02-23T20:36:25.445Z,98198.53
2024-02-23T20:38:29.437Z,98203.78
2024-02-23T20:40:33.870Z,98195.06
2024-02-23T20:42:37.870Z,98199.38
2024-02-23T20:44:42.240Z,98198.53
2024-02-23T20:46:46.603Z,98194.13
2024-02-23T20:48:50.751Z,98190.69
2024-02-23T20:50:56.212Z,98198.53
2024-02-23T20:52:59.714Z,98194.94
2024-02-23T20:55:05.182Z,98204.59
2024-02-23T20:57:09.367Z,98193.31
2024-02-23T20:59:14.027Z,98196.88
2024-02-23T21:01:17.762Z,98201.16
2024-02-23T21:03:22.316Z,98207.22
2024-02-23T21:05:26.154Z,98201.16
2024-02-23T21:07:31.889Z,98202.13
2024-02-23T21:09:36.421Z,98212.59
2024-02-23T21:11:40.571Z,98200.44
2024-02-23T21:13:44.759Z,98210.09
2024-02-23T21:15:48.994Z,98208.44
2024-02-23T21:17:54.433Z,98206.75
2024-02-23T21:19:58.622Z,98212.84
2024-02-23T21:22:04.356Z,98206.75
2024-02-23T21:24:09.868Z,98208.44
2024-02-23T21:26:14.127Z,98200.69
2024-02-23T21:28:19.498Z,98208.44
2024-02-23T21:30:24.081Z,98205.81
2024-02-23T21:32:27.912Z,98210.91
2024-02-23T21:34:31.905Z,98207.34
2024-02-23T21:36:35.868Z,98209.97
2024-02-23T21:38:39.680Z,98209.97
2024-02-23T21:40:43.911Z,98214.25
2024-02-23T21:42:47.589Z,98208.19
2024-02-23T21:44:50.331Z,98214.38
2024-02-23T21:46:54.111Z,98214.38
2024-02-23T21:48:59.845Z,98218.66
2024-02-23T21:51:05.294Z,98223.91
2024-02-23T21:53:09.975Z,98222.13
2024-02-23T21:55:12.774Z,98223.91
2024-02-23T21:57:18.283Z,98219.63
2024-02-23T21:59:21.293Z,98227.38
2024-02-23T22:01:25.323Z,98228.19
2024-02-23T22:03:30.195Z,98220.31
2024-02-23T22:05:34.344Z,98229.13
2024-02-23T22:07:38.889Z,98222.13
2024-02-23T22:09:44.780Z,98223.06
2024-02-23T22:11:48.586Z,98230.81
2024-02-23T22:13:54.467Z,98218.66
2024-02-23T22:15:57.220Z,98226.50
2024-02-23T22:18:01.402Z,98227.38
2024-02-23T22:20:04.630Z,98230.00
2024-02-23T22:22:08.552Z,98229.13
2024-02-23T22:24:12.801Z,98232.72
2024-02-23T22:26:15.607Z,98233.56
2024-02-23T22:28:19.686Z,98227.50
2024-02-23T22:30:26.635Z,98235.22
2024-02-23T22:32:31.362Z,98232.59
2024-02-23T22:34:35.568Z,98231.75
2024-02-23T22:36:39.951Z,98230.00
2024-02-23T22:38:45.223Z,98236.06
2024-02-23T22:40:49.259Z,98230.00
2024-02-23T22:42:53.928Z,98229.13
2024-02-23T22:45:01.869Z,98232.72
2024-02-23T22:47:08.855Z,98233.69
2024-02-23T22:49:13.192Z,98232.00
2024-02-23T22:51:15.878Z,98227.72
2024-02-23T22:53:19.791Z,98224.41
2024-02-23T22:55:24.991Z,98221.91
2024-02-23T22:57:28.544Z,98224.63
2024-02-23T22:59:32.699Z,98228.22
2024-02-23T23:01:39.442Z,98231.78
2024-02-23T23:03:47.308Z,98226.53
2024-02-23T23:05:51.395Z,98237.97
2024-02-23T23:07:55.914Z,98237.25
2024-02-23T23:09:59.565Z,98236.41
2024-02-23T23:12:03.600Z,98236.53
2024-02-23T23:14:07.369Z,98240.81
2024-02-23T23:16:11.319Z,98234.84
2024-02-23T23:18:15.351Z,98248.94
2024-02-23T23:20:20.873Z,98248.06
2024-02-23T23:22:24.762Z,98246.44
2024-02-23T23:24:29.530Z,98243.91
2024-02-23T23:26:32.277Z,98249.16
2024-02-23T23:28:36.204Z,98243.91
2024-02-23T23:30:40.326Z,98250.13
2024-02-23T23:32:44.417Z,98257.97
2024-02-23T23:34:49.744Z,98257.13
2024-02-23T23:36:58.165Z,98258.09
2024-02-23T23:39:02.709Z,98258.94
2024-02-23T23:41:07.164Z,98258.69
2024-02-23T23:43:10.963Z,98260.34
2024-02-23T23:45:16.396Z,98269.88
2024-02-23T23:47:20.373Z,98266.41
2024-02-23T23:49:24.122Z,98271.66
2024-02-23T23:51:28.568Z,98271.66
2024-02-23T23:53:32.927Z,98271.78
2024-02-23T23:55:38.053Z,98274.66
2024-02-23T23:57:41.918Z,98281.78
2024-02-23T23:59:44.843Z,98265.47
